createdAt,value
2023-04-10T00:00:09.146Z,6.97
2023-04-10T00:02:38.775Z,6.88
2023-04-10T00:05:08.362Z,7.90
2023-04-10T00:07:36.326Z,7.10
2023-04-10T00:10:04.193Z,7.35
2023-04-10T00:12:32.093Z,7.43
2023-04-10T00:14:59.936Z,7.97
2023-04-10T00:17:27.678Z,6.80
2023-04-10T00:20:01.772Z,5.93
2023-04-10T00:22:29.548Z,5.95
2023-04-10T00:24:57.211Z,7.47
2023-04-10T00:27:25.056Z,7.93
2023-04-10T00:29:52.892Z,7.20
2023-04-10T00:32:20.188Z,7.65
2023-04-10T00:34:47.826Z,6.93
2023-04-10T00:37:15.549Z,7.57
2023-04-10T00:39:45.526Z,7.55
2023-04-10T00:42:13.315Z,7.75
2023-04-10T00:44:41.889Z,7.38
2023-04-10T00:47:13.446Z,7.97
2023-04-10T00:49:42.613Z,7.72
2023-04-10T00:52:11.157Z,8.68
2023-04-10T00:54:40.420Z,7.43
2023-04-10T00:57:08.564Z,8.05
2023-04-10T00:59:36.625Z,8.63
2023-04-10T01:02:04.642Z,8.48
2023-04-10T01:04:33.836Z,8.57
2023-04-10T01:07:33.968Z,9.23
2023-04-10T01:10:36.813Z,8.48
2023-04-10T01:13:07.518Z,8.30
2023-04-10T01:15:53.341Z,8.35
2023-04-10T01:18:47.883Z,8.75
2023-04-10T01:21:19.127Z,9.02
2023-04-10T01:24:24.659Z,9.32
2023-04-10T01:26:52.384Z,8.93
2023-04-10T01:29:21.721Z,9.00
2023-04-10T01:32:02.736Z,8.05
2023-04-10T01:34:37.612Z,8.05
2023-04-10T01:37:26.570Z,9.45
2023-04-10T01:40:04.108Z,9.88
2023-04-10T01:42:34.774Z,9.05
2023-04-10T01:45:05.499Z,8.48
2023-04-10T01:47:34.658Z,9.30
2023-04-10T01:50:04.043Z,7.78
2023-04-10T01:52:36.450Z,8.65
2023-04-10T01:55:17.325Z,7.75
2023-04-10T01:57:50.902Z,8.32
2023-04-10T02:00:19.961Z,7.90
2023-04-10T02:02:47.983Z,7.70
2023-04-10T02:05:17.433Z,7.40
2023-04-10T02:08:08.914Z,6.22
2023-04-10T02:10:56.702Z,7.00
2023-04-10T02:13:28.671Z,7.28
2023-04-10T02:16:00.007Z,7.20
2023-04-10T02:18:29.782Z,8.85
2023-04-10T02:20:57.621Z,7.70
2023-04-10T02:23:25.856Z,8.07
2023-04-10T02:28:27.606Z,8.02
2023-04-10T02:30:58.404Z,8.25
2023-04-10T02:33:26.416Z,10.30
2023-04-10T02:35:54.328Z,8.52
2023-04-10T02:38:23.121Z,8.80
2023-04-10T02:40:51.143Z,8.57
2023-04-10T02:43:19.438Z,9.50
2023-04-10T02:45:48.213Z,9.27
2023-04-10T02:48:22.861Z,8.95
2023-04-10T02:50:59.431Z,9.80
2023-04-10T02:53:29.302Z,10.00
2023-04-10T02:56:01.082Z,10.23
2023-04-10T02:58:33.174Z,10.15
2023-04-10T03:01:02.406Z,10.32
2023-04-10T03:03:41.713Z,10.30
2023-04-10T03:06:11.154Z,11.13
2023-04-10T03:08:40.811Z,10.98
2023-04-10T03:11:10.079Z,11.07
2023-04-10T03:13:40.228Z,11.07
2023-04-10T03:16:08.333Z,11.23
2023-04-10T03:18:36.397Z,12.75
2023-04-10T03:21:04.899Z,13.30
2023-04-10T03:23:32.889Z,11.57
2023-04-10T03:26:01.234Z,11.00
2023-04-10T03:28:31.333Z,11.73
2023-04-10T03:30:59.081Z,9.55
2023-04-10T03:33:30.882Z,10.98
2023-04-10T03:36:04.193Z,9.80
2023-04-10T03:38:34.028Z,10.50
2023-04-10T03:41:01.771Z,10.93
2023-04-10T03:43:32.100Z,10.10
2023-04-10T03:46:02.346Z,9.57
2023-04-10T03:48:31.062Z,10.43
2023-04-10T03:50:59.116Z,8.60
2023-04-10T03:53:27.005Z,9.73
2023-04-10T03:55:55.946Z,10.70
2023-04-10T03:58:25.460Z,10.50
2023-04-10T04:00:55.990Z,11.15
2023-04-10T04:03:34.924Z,11.20
2023-04-10T04:06:21.418Z,11.50
2023-04-10T04:09:15.173Z,12.48
2023-04-10T04:12:01.174Z,12.35
2023-04-10T04:14:58.243Z,12.38
2023-04-10T04:17:46.713Z,12.38
2023-04-10T04:20:33.099Z,10.60
2023-04-10T04:23:13.713Z,11.48
2023-04-10T04:25:41.323Z,11.00
2023-04-10T04:28:24.146Z,11.63
2023-04-10T04:31:12.037Z,11.18
2023-04-10T04:33:51.781Z,11.00
2023-04-10T04:36:42.772Z,10.52
2023-04-10T04:39:33.509Z,9.90
2023-04-10T04:42:14.363Z,10.20
2023-04-10T04:44:51.115Z,10.60
2023-04-10T04:47:37.128Z,10.80
2023-04-10T04:50:26.930Z,10.77
2023-04-10T04:53:14.840Z,11.20
2023-04-10T04:55:53.228Z,11.00
2023-04-10T04:58:39.220Z,9.18
2023-04-10T05:01:16.984Z,9.75
2023-04-10T05:03:54.877Z,9.57
2023-04-10T05:06:42.894Z,9.85
2023-04-10T05:09:19.440Z,9.18
2023-04-10T05:12:11.262Z,9.60
2023-04-10T05:14:46.563Z,9.98
2023-04-10T05:17:43.938Z,10.40
2023-04-10T05:20:30.356Z,10.70
2023-04-10T05:23:04.763Z,11.05
2023-04-10T05:25:40.495Z,10.73
2023-04-10T05:28:19.494Z,10.40
2023-04-10T05:33:55.870Z,9.85
2023-04-10T05:36:44.023Z,10.23
2023-04-10T05:39:32.443Z,10.20
2023-04-10T05:45:19.077Z,9.82
2023-04-10T05:48:02.110Z,10.85
2023-04-10T05:50:41.881Z,11.35
2023-04-10T05:53:35.686Z,10.43
2023-04-10T05:56:32.756Z,10.65
2023-04-10T05:59:20.119Z,11.05
2023-04-10T06:02:06.788Z,9.75
2023-04-10T06:04:34.925Z,10.55
2023-04-10T06:07:03.812Z,8.80
2023-04-10T06:09:36.538Z,9.45
2023-04-10T06:12:07.129Z,9.65
2023-04-10T06:14:36.502Z,10.27
2023-04-10T06:17:04.451Z,9.63
2023-04-10T06:19:32.289Z,9.45
2023-04-10T06:22:00.209Z,9.30
2023-04-10T06:24:27.888Z,9.52
2023-04-10T06:26:57.600Z,9.27
2023-04-10T06:29:25.860Z,9.38
2023-04-10T06:31:53.287Z,10.00
2023-04-10T06:34:21.513Z,9.65
2023-04-10T06:37:03.179Z,9.60
2023-04-10T06:39:34.089Z,9.88
2023-04-10T06:42:03.007Z,8.80
2023-04-10T06:44:54.016Z,9.48
2023-04-10T06:47:22.039Z,8.52
2023-04-10T06:49:49.906Z,9.68
2023-04-10T06:52:18.468Z,9.32
2023-04-10T06:54:46.273Z,9.25
2023-04-10T06:57:14.162Z,9.25
2023-04-10T06:59:42.138Z,8.52
2023-04-10T07:02:09.533Z,9.45
2023-04-10T07:04:37.333Z,7.85
2023-04-10T07:07:10.321Z,8.98
2023-04-10T07:09:41.641Z,9.27
2023-04-10T07:12:15.957Z,8.80
2023-04-10T07:14:43.845Z,8.95
2023-04-10T07:17:11.601Z,8.98
2023-04-10T07:19:39.535Z,9.35
2023-04-10T07:22:08.375Z,9.77
2023-04-10T07:24:39.022Z,8.70
2023-04-10T07:27:07.083Z,9.23
2023-04-10T07:29:34.742Z,9.02
2023-04-10T07:32:02.624Z,7.78
2023-04-10T07:34:32.256Z,8.70
2023-04-10T07:36:59.990Z,8.50
2023-04-10T07:39:28.167Z,7.60
2023-04-10T07:41:56.218Z,8.18
2023-04-10T07:44:24.183Z,8.57
2023-04-10T07:46:52.752Z,8.00
2023-04-10T07:49:23.396Z,8.20
2023-04-10T07:51:51.354Z,8.15
2023-04-10T07:54:19.114Z,8.88
2023-04-10T07:56:47.124Z,7.85
2023-04-10T07:59:14.927Z,8.52
2023-04-10T08:02:02.360Z,8.35
2023-04-10T08:04:52.879Z,8.10
2023-04-10T08:07:34.342Z,7.40
2023-04-10T08:10:07.199Z,6.70
2023-04-10T08:13:00.060Z,7.95
2023-04-10T08:15:27.908Z,7.63
2023-04-10T08:17:55.780Z,7.93
2023-04-10T08:20:23.973Z,8.85
2023-04-10T08:22:51.831Z,7.85
2023-04-10T08:25:31.839Z,7.13
2023-04-10T08:34:31.256Z,8.35
2023-04-10T08:40:01.118Z,7.32
2023-04-10T08:42:33.400Z,7.30
2023-04-10T08:45:02.250Z,6.70
2023-04-10T08:48:26.683Z,6.22
2023-04-10T08:53:47.035Z,6.70
2023-04-10T08:56:26.116Z,7.05
2023-04-10T08:58:54.125Z,5.95
2023-04-10T09:01:22.517Z,6.63
2023-04-10T09:03:50.513Z,6.85
2023-04-10T09:06:18.315Z,6.38
2023-04-10T09:08:46.141Z,5.45
2023-04-10T09:11:13.988Z,5.95
2023-04-10T09:13:44.374Z,6.07
2023-04-10T09:16:15.589Z,5.57
2023-04-10T09:18:44.431Z,6.43
2023-04-10T09:21:14.088Z,6.88
2023-04-10T09:23:43.780Z,6.63
2023-04-10T09:26:33.079Z,6.15
2023-04-10T09:29:08.517Z,5.75
2023-04-10T09:31:38.518Z,5.97
2023-04-10T09:35:01.691Z,6.13
2023-04-10T09:37:40.940Z,6.10
2023-04-10T09:40:22.091Z,5.07
2023-04-10T09:42:49.902Z,5.45
2023-04-10T09:45:21.066Z,6.32
2023-04-10T09:48:08.756Z,5.50
2023-04-10T09:50:41.364Z,5.85
2023-04-10T09:53:11.093Z,6.93
2023-04-10T09:55:42.492Z,6.75
2023-04-10T09:58:11.532Z,6.90
2023-04-10T10:00:49.832Z,6.30
2023-04-10T10:03:26.616Z,4.90
2023-04-10T10:05:54.761Z,5.70
2023-04-10T10:08:24.304Z,6.07
2023-04-10T10:10:55.077Z,5.33
2023-04-10T10:13:51.254Z,4.70
2023-04-10T10:16:19.640Z,6.25
2023-04-10T10:19:26.036Z,5.50
2023-04-10T10:21:55.335Z,5.53
2023-04-10T10:24:26.955Z,7.65
2023-04-10T10:26:57.675Z,6.80
2023-04-10T10:29:25.787Z,6.93
2023-04-10T10:31:54.733Z,6.30
2023-04-10T10:34:22.642Z,6.13
2023-04-10T10:36:51.614Z,5.80
2023-04-10T10:39:42.239Z,6.57
2023-04-10T10:45:19.832Z,5.55
2023-04-10T10:47:53.425Z,6.10
2023-04-10T10:50:25.001Z,6.32
2023-04-10T10:52:54.541Z,6.10
2023-04-10T10:55:28.668Z,5.65
2023-04-10T10:58:01.934Z,6.32
2023-04-10T11:00:52.439Z,5.80
2023-04-10T11:05:55.754Z,4.55
2023-04-10T11:08:47.450Z,5.30
2023-04-10T11:11:25.872Z,5.03
2023-04-10T11:13:53.662Z,5.70
2023-04-10T11:16:22.418Z,6.03
2023-04-10T11:18:59.417Z,5.60
2023-04-10T11:21:34.719Z,6.00
2023-04-10T11:24:04.476Z,5.28
2023-04-10T11:26:39.644Z,6.10
2023-04-10T11:29:14.695Z,6.65
2023-04-10T11:31:44.027Z,5.90
2023-04-10T11:34:12.630Z,5.97
2023-04-10T11:36:42.640Z,6.07
2023-04-10T11:39:13.760Z,6.07
2023-04-10T11:41:46.910Z,5.93
2023-04-10T11:44:21.150Z,6.05
2023-04-10T11:46:51.036Z,4.57
2023-04-10T11:49:24.126Z,5.13
2023-04-10T11:51:52.875Z,5.20
2023-04-10T11:54:23.257Z,5.85
2023-04-10T11:56:58.964Z,6.10
2023-04-10T11:59:27.779Z,6.70
2023-04-10T12:02:08.369Z,6.00
2023-04-10T12:04:37.440Z,6.82
2023-04-10T12:07:05.979Z,6.68
2023-04-10T12:09:34.164Z,3.80
2023-04-10T12:12:04.613Z,3.70
2023-04-10T12:17:12.339Z,2.60
2023-04-10T12:19:40.887Z,3.30
2023-04-10T12:22:12.343Z,4.22
2023-04-10T12:24:51.685Z,3.28
2023-04-10T12:27:27.035Z,3.92
2023-04-10T12:29:58.810Z,3.97
2023-04-10T12:32:33.806Z,3.85
2023-04-10T12:35:04.569Z,3.10
2023-04-10T12:37:52.616Z,3.63
2023-04-10T12:40:29.511Z,4.03
2023-04-10T12:42:57.987Z,4.53
2023-04-10T12:45:45.463Z,3.90
2023-04-10T12:48:13.281Z,4.38
2023-04-10T12:50:52.459Z,3.85
2023-04-10T12:53:20.569Z,3.22
2023-04-10T12:56:06.907Z,3.72
2023-04-10T12:58:34.809Z,3.45
2023-04-10T13:01:07.085Z,3.15
2023-04-10T13:03:36.953Z,3.42
2023-04-10T13:06:08.528Z,4.07
2023-04-10T13:08:36.704Z,3.22
2023-04-10T13:11:04.611Z,3.03
2023-04-10T13:13:33.234Z,3.50
2023-04-10T13:16:01.265Z,3.13
2023-04-10T13:18:32.010Z,3.40
2023-04-10T13:20:59.901Z,3.22
2023-04-10T13:23:27.582Z,3.13
2023-04-10T13:25:57.275Z,2.92
2023-04-10T13:28:28.179Z,2.55
2023-04-10T13:30:56.997Z,3.15
2023-04-10T13:33:25.416Z,3.47
2023-04-10T13:35:53.241Z,3.17
2023-04-10T13:38:24.011Z,3.42
2023-04-10T13:40:54.716Z,3.60
2023-04-10T13:43:22.678Z,3.10
2023-04-10T13:45:50.450Z,2.95
2023-04-10T13:48:24.521Z,3.00
2023-04-10T13:50:57.813Z,3.03
2023-04-10T13:53:25.866Z,2.90
2023-04-10T13:55:53.624Z,2.72
2023-04-10T13:58:25.483Z,2.85
2023-04-10T14:00:53.381Z,3.33
2023-04-10T14:03:21.791Z,3.20
2023-04-10T14:05:51.083Z,3.15
2023-04-10T14:08:19.049Z,2.70
2023-04-10T14:10:56.885Z,2.72
2023-04-10T14:13:24.647Z,2.40
2023-04-10T14:15:55.077Z,2.97
2023-04-10T14:20:54.150Z,2.92
2023-04-10T14:23:26.012Z,2.85
2023-04-10T14:25:54.178Z,2.90
2023-04-10T14:28:21.946Z,2.63
2023-04-10T14:30:51.683Z,3.20
2023-04-10T14:33:20.049Z,2.50
2023-04-10T14:35:50.933Z,2.65
2023-04-10T14:38:19.949Z,2.65
2023-04-10T14:40:50.486Z,2.72
2023-04-10T14:45:47.572Z,2.65
2023-04-10T14:48:15.535Z,2.85
2023-04-10T14:50:43.635Z,2.75
2023-04-10T14:53:11.425Z,2.88
2023-04-10T14:55:42.422Z,2.92
2023-04-10T14:58:11.625Z,2.38
2023-04-10T15:00:39.495Z,2.85
2023-04-10T15:03:08.837Z,2.75
2023-04-10T15:05:36.900Z,2.92
2023-04-10T15:08:05.312Z,3.10
2023-04-10T15:10:33.035Z,2.55
2023-04-10T15:13:02.345Z,3.00
2023-04-10T15:15:30.091Z,3.05
2023-04-10T15:17:57.367Z,3.53
2023-04-10T15:20:43.285Z,2.80
2023-04-10T15:23:27.771Z,2.50
2023-04-10T15:25:59.325Z,2.42
2023-04-10T15:28:29.400Z,2.47
2023-04-10T15:30:58.074Z,2.83
2023-04-10T15:33:25.845Z,2.70
2023-04-10T15:35:59.759Z,2.25
2023-04-10T15:38:29.039Z,2.45
2023-04-10T15:40:59.338Z,2.17
2023-04-10T15:43:29.630Z,2.53
2023-04-10T15:46:00.625Z,2.42
2023-04-10T15:48:29.452Z,2.50
2023-04-10T15:50:56.780Z,3.05
2023-04-10T15:53:24.110Z,2.50
2023-04-10T15:55:53.830Z,2.70
2023-04-10T15:58:21.104Z,2.40
2023-04-10T16:00:48.335Z,2.55
2023-04-10T16:03:16.272Z,2.33
2023-04-10T16:05:46.233Z,2.50
2023-04-10T16:08:13.734Z,2.65
2023-04-10T16:10:41.151Z,1.92
2023-04-10T16:13:08.845Z,2.53
2023-04-10T16:15:41.460Z,2.80
2023-04-10T16:18:08.928Z,2.60
2023-04-10T16:20:38.206Z,2.42
2023-04-10T16:23:14.582Z,2.72
2023-04-10T16:25:48.373Z,2.50
2023-04-10T16:28:21.322Z,2.40
2023-04-10T16:30:49.013Z,2.20
2023-04-10T16:33:18.913Z,2.83
2023-04-10T16:35:48.034Z,2.40
2023-04-10T16:38:16.163Z,2.83
2023-04-10T16:40:44.061Z,2.60
2023-04-10T16:43:14.870Z,2.45
2023-04-10T16:45:42.713Z,2.75
2023-04-10T16:48:10.546Z,2.50
2023-04-10T16:50:38.410Z,2.80
2023-04-10T16:53:06.085Z,2.67
2023-04-10T16:55:36.909Z,2.60
2023-04-10T16:58:04.415Z,2.83
2023-04-10T17:00:41.170Z,3.28
2023-04-10T17:03:23.542Z,2.72
2023-04-10T17:05:51.711Z,2.63
2023-04-10T17:08:19.084Z,3.03
2023-04-10T17:10:46.913Z,3.22
2023-04-10T17:13:22.400Z,3.10
2023-04-10T17:15:51.900Z,3.30
2023-04-10T17:18:26.102Z,3.03
2023-04-10T17:20:56.433Z,3.08
2023-04-10T17:23:24.225Z,3.00
2023-04-10T17:25:53.830Z,3.08
2023-04-10T17:28:24.260Z,3.22
2023-04-10T17:30:58.777Z,3.38
2023-04-10T17:33:41.322Z,3.20
2023-04-10T17:36:12.490Z,3.42
2023-04-10T17:38:46.089Z,3.30
2023-04-10T17:41:18.398Z,3.22
2023-04-10T17:43:48.827Z,3.70
2023-04-10T17:46:22.143Z,3.80
2023-04-10T17:48:52.806Z,3.97
2023-04-10T17:51:20.730Z,4.20
2023-04-10T17:53:48.413Z,3.92
2023-04-10T17:56:19.853Z,3.70
2023-04-10T17:58:47.798Z,3.95
2023-04-10T18:01:23.379Z,4.15
2023-04-10T18:03:55.976Z,3.90
2023-04-10T18:06:28.915Z,4.50
2023-04-10T18:09:04.159Z,4.40
2023-04-10T18:11:32.177Z,4.40
2023-04-10T18:14:03.038Z,4.43
2023-04-10T18:16:31.421Z,4.20
2023-04-10T18:18:59.089Z,4.15
2023-04-10T18:23:56.476Z,3.58
2023-04-10T18:26:23.603Z,3.70
2023-04-10T18:28:50.688Z,4.07
2023-04-10T18:31:19.344Z,3.50
2023-04-10T18:33:53.360Z,3.80
2023-04-10T18:36:31.827Z,3.53
2023-04-10T18:38:58.970Z,3.55
2023-04-10T18:41:26.476Z,3.63
2023-04-10T18:44:01.775Z,3.90
2023-04-10T18:46:32.975Z,3.60
2023-04-10T18:49:01.664Z,3.80
2023-04-10T18:51:28.896Z,3.83
2023-04-10T18:53:56.431Z,3.85
2023-04-10T18:56:38.682Z,4.20
2023-04-10T18:59:08.926Z,4.13
2023-04-10T19:01:43.353Z,3.70
2023-04-10T19:04:14.419Z,4.10
2023-04-10T19:06:47.664Z,3.72
2023-04-10T19:09:20.718Z,4.57
2023-04-10T19:11:50.538Z,3.30
2023-04-10T19:14:17.866Z,4.45
2023-04-10T19:16:45.339Z,4.20
2023-04-10T19:19:12.714Z,3.95
2023-04-10T19:21:39.890Z,3.72
2023-04-10T19:24:17.644Z,3.72
2023-04-10T19:26:45.755Z,4.35
2023-04-10T19:29:13.722Z,4.10
2023-04-10T19:31:41.100Z,4.20
2023-04-10T19:34:11.437Z,3.75
2023-04-10T19:36:38.912Z,3.45
2023-04-10T19:39:06.488Z,4.03
2023-04-10T19:41:33.675Z,3.45
2023-04-10T19:44:01.069Z,4.50
2023-04-10T19:46:28.296Z,4.60
2023-04-10T19:48:55.657Z,9.70
2023-04-10T19:51:23.077Z,5.03
2023-04-10T19:53:50.437Z,4.22
2023-04-10T19:56:20.828Z,4.20
2023-04-10T20:01:18.405Z,4.20
2023-04-10T20:03:46.184Z,3.65
2023-04-10T20:06:13.385Z,4.35
2023-04-10T20:08:41.473Z,4.35
2023-04-10T20:11:09.694Z,4.38
2023-04-10T20:13:42.102Z,4.10
2023-04-10T20:16:09.942Z,4.47
2023-04-10T20:18:37.902Z,4.30
2023-04-10T20:21:08.084Z,4.63
2023-04-10T20:23:35.983Z,5.05
2023-04-10T20:26:03.718Z,3.95
2023-04-10T20:28:32.169Z,4.05
2023-04-10T20:31:00.118Z,4.05
2023-04-10T20:33:31.115Z,4.20
2023-04-10T20:35:59.193Z,5.80
2023-04-10T20:38:27.516Z,5.18
2023-04-10T20:40:58.604Z,4.85
2023-04-10T20:43:25.970Z,4.75
2023-04-10T20:45:54.019Z,4.68
2023-04-10T20:48:24.723Z,4.00
2023-04-10T20:50:55.188Z,4.47
2023-04-10T20:53:22.982Z,5.18
2023-04-10T20:55:56.989Z,4.55
2023-04-10T20:58:27.234Z,4.50
2023-04-10T21:00:55.105Z,4.63
2023-04-10T21:03:23.392Z,4.40
2023-04-10T21:05:53.439Z,4.30
2023-04-10T21:08:22.438Z,4.50
2023-04-10T21:10:50.085Z,5.25
2023-04-10T21:13:17.831Z,5.28
2023-04-10T21:15:52.607Z,5.15
2023-04-10T21:18:23.492Z,4.53
2023-04-10T21:21:01.483Z,7.20
2023-04-10T21:23:31.922Z,6.20
2023-04-10T21:26:02.933Z,4.80
2023-04-10T21:28:30.836Z,4.50
2023-04-10T21:30:58.676Z,5.15
2023-04-10T21:33:26.402Z,4.43
2023-04-10T21:35:54.269Z,5.00
2023-04-10T21:38:23.834Z,4.70
2023-04-10T21:40:55.432Z,4.60
2023-04-10T21:43:23.368Z,5.22
2023-04-10T21:45:51.220Z,6.05
2023-04-10T21:48:21.059Z,5.65
2023-04-10T21:50:51.058Z,6.60
2023-04-10T21:53:19.774Z,5.53
2023-04-10T21:55:47.760Z,5.32
2023-04-10T21:58:15.145Z,5.47
2023-04-10T22:00:42.993Z,5.43
2023-04-10T22:03:11.028Z,5.75
2023-04-10T22:08:08.928Z,5.13
2023-04-10T22:10:38.089Z,5.50
2023-04-10T22:13:06.072Z,5.45
2023-04-10T22:15:34.478Z,4.68
2023-04-10T22:18:01.784Z,5.00
2023-04-10T22:20:29.379Z,5.00
2023-04-10T22:22:57.167Z,4.70
2023-04-10T22:25:24.857Z,5.10
2023-04-10T22:27:52.844Z,5.32
2023-04-10T22:30:20.461Z,5.72
2023-04-10T22:32:48.431Z,5.25
2023-04-10T22:35:18.426Z,5.40
2023-04-10T22:37:49.010Z,5.28
2023-04-10T22:40:16.886Z,5.32
2023-04-10T22:42:45.902Z,5.18
2023-04-10T22:45:22.852Z,5.88
2023-04-10T22:47:50.693Z,4.95
2023-04-10T22:50:18.744Z,5.25
2023-04-10T22:52:46.708Z,5.35
2023-04-10T22:55:14.881Z,5.35
2023-04-10T22:57:49.866Z,5.18
2023-04-10T23:00:17.863Z,5.30
2023-04-10T23:02:45.820Z,4.88
2023-04-10T23:05:16.807Z,4.47
2023-04-10T23:07:46.792Z,5.65
2023-04-10T23:10:14.544Z,4.68
2023-04-10T23:12:42.211Z,4.50
2023-04-10T23:15:10.217Z,4.65
2023-04-10T23:17:37.993Z,5.07
2023-04-10T23:20:08.761Z,5.28
2023-04-10T23:22:38.987Z,5.00
2023-04-10T23:25:07.344Z,4.68
2023-04-10T23:27:35.104Z,4.88
2023-04-10T23:30:07.228Z,4.55
2023-04-10T23:32:35.120Z,4.90
2023-04-10T23:35:03.060Z,4.10
2023-04-10T23:37:33.446Z,4.45
2023-04-10T23:40:01.145Z,5.28
2023-04-10T23:42:28.956Z,5.13
2023-04-10T23:45:00.017Z,4.60
2023-04-10T23:47:29.893Z,5.00
2023-04-10T23:49:58.024Z,4.47
2023-04-10T23:52:28.857Z,4.25
2023-04-10T23:55:05.541Z,5.28
2023-04-10T23:57:33.399Z,4.63
